Etusivu
METAR-TAF:

METAR-TAF

Lentoasemat :

LaGrange-Callaway Airport

LaGrange, Georgia, Yhdysvallat

Leveyspiiri: 33-00-32N, Pituuspiiri: 085-04-21W, korkeus merenpinnasta: 211 m

Tämänhetkinen sää

Tämä raportti tehtiin 18 minuuttia sitten, kello 16.15 UTC
tyyntä
Lämpötila 16°C
Kosteus 45%
Ilmanpaine 1022 hPa
Näkyvyys: 16.1 km
Hajonneita pilviä 1800 ft:n korkeudessa
Hajonneita pilviä 2600 ft:n korkeudessa
Pilvistä 3800 ft:n korkeudessa

METAR: KLGC 261615Z AUTO 00000KT 10SM BKN018 BKN026 OVC038 16/04 A3017 RMK AO2 T01590041

Aika: 11:33 (16:33 UTC)


TAF: puuttuu

Säähavainnot ja -ennusteet yli 4000 lentoasemalta (METAR- ja TAF-raportit).

Käytössä olevat sääasemat on merkitty karttaan keltaisilla ja punaisilla pisteillä.

Aseta hiiri pisteen päälle nähdäksesi sääaseman nimen.

Klikkaa sitten nähdäksesi säähavainnot ja -ennusteet.

Kartan vaihtaminen: klikkaa mustalla rastilla varustettuja vihreitä pisteitä, niin voit zoomata sisään; viivalla varustettua vihreää pistettä, niin voit zoomata ulos tai vihreitä nuolia, niin pääset viereisille kartoille.


METAR-TAF: